createdAt,value
2022-11-16T00:03:09.736Z,12.85
2022-11-16T00:08:28.516Z,12.85
2022-11-16T00:13:48.094Z,12.85
2022-11-16T00:19:07.788Z,12.85
2022-11-16T00:24:27.276Z,12.85
2022-11-16T00:29:46.684Z,12.85
2022-11-16T00:35:05.908Z,12.85
2022-11-16T00:40:25.210Z,12.84
2022-11-16T00:45:44.346Z,12.84
2022-11-16T00:51:03.069Z,12.84
2022-11-16T00:56:21.912Z,12.84
2022-11-16T01:01:40.784Z,12.84
2022-11-16T01:07:00.089Z,12.84
2022-11-16T01:12:19.665Z,12.84
2022-11-16T01:17:39.184Z,12.83
2022-11-16T01:22:58.906Z,12.84
2022-11-16T01:28:18.306Z,12.83
2022-11-16T01:33:37.415Z,12.84
2022-11-16T01:38:56.307Z,12.83
2022-11-16T01:44:23.673Z,12.82
2022-11-16T01:49:35.020Z,12.82
2022-11-16T01:54:54.056Z,12.82
2022-11-16T02:00:13.290Z,12.82
2022-11-16T02:05:32.994Z,12.82
2022-11-16T02:10:51.968Z,12.82
2022-11-16T02:16:11.648Z,12.82
2022-11-16T02:21:31.030Z,12.82
2022-11-16T02:26:50.670Z,12.81
2022-11-16T02:32:10.291Z,12.82
2022-11-16T02:37:30.025Z,12.82
2022-11-16T02:42:48.903Z,12.81
2022-11-16T02:48:08.033Z,12.81
2022-11-16T02:53:27.258Z,12.81
2022-11-16T02:58:46.773Z,12.8
2022-11-16T03:04:06.155Z,12.8
2022-11-16T03:09:25.051Z,12.8
2022-11-16T03:14:44.756Z,12.8
2022-11-16T03:20:04.526Z,12.8
2022-11-16T03:25:23.798Z,12.8
2022-11-16T03:30:42.919Z,12.8
2022-11-16T03:36:02.404Z,12.8
2022-11-16T03:46:41.022Z,12.79
2022-11-16T03:52:00.209Z,12.79
2022-11-16T03:57:19.177Z,12.79
2022-11-16T04:02:38.091Z,12.79
2022-11-16T04:07:57.087Z,12.78
2022-11-16T04:13:16.198Z,12.78
2022-11-16T04:18:36.168Z,12.78
2022-11-16T04:23:55.209Z,12.78
2022-11-16T04:29:14.842Z,12.78
2022-11-16T04:34:34.471Z,12.77
2022-11-16T04:45:12.414Z,12.77
2022-11-16T04:50:32.162Z,12.77
2022-11-16T04:55:53.525Z,12.77
2022-11-16T05:01:18.991Z,12.76
2022-11-16T05:06:29.893Z,12.76
2022-11-16T05:11:58.189Z,12.76
2022-11-16T05:17:08.788Z,12.76
2022-11-16T05:22:27.755Z,12.76
2022-11-16T05:27:46.528Z,12.76
2022-11-16T05:33:06.115Z,12.75
2022-11-16T05:38:25.514Z,12.75
2022-11-16T05:43:44.708Z,12.75
2022-11-16T05:49:14.264Z,12.74
2022-11-16T05:54:23.505Z,12.74
2022-11-16T05:59:42.380Z,12.74
2022-11-16T06:10:28.446Z,12.74
2022-11-16T06:15:39.541Z,12.73
2022-11-16T06:20:58.847Z,12.73
2022-11-16T06:26:17.908Z,12.72
2022-11-16T06:36:56.782Z,12.72
2022-11-16T06:42:15.834Z,12.71
2022-11-16T06:52:54.807Z,12.7
2022-11-16T06:58:14.451Z,12.7
2022-11-16T07:09:00.421Z,12.7
2022-11-16T07:14:20.724Z,12.7
2022-11-16T07:19:41.704Z,12.7
2022-11-16T07:24:50.933Z,12.69
2022-11-16T07:30:09.667Z,12.69
2022-11-16T07:35:28.692Z,12.68
2022-11-16T07:40:56.712Z,12.68
2022-11-16T07:51:27.011Z,12.71
2022-11-16T07:56:46.281Z,12.7
2022-11-16T08:02:05.903Z,12.68
2022-11-16T08:07:24.611Z,12.7
2022-11-16T08:18:03.071Z,12.71
2022-11-16T08:23:22.311Z,12.75
2022-11-16T08:28:42.044Z,12.8
2022-11-16T08:34:01.726Z,12.84
2022-11-16T08:39:20.173Z,12.98
2022-11-16T08:44:39.785Z,13.17
2022-11-16T08:49:59.032Z,13.28
2022-11-16T08:55:18.877Z,13.38
2022-11-16T09:00:37.843Z,13.53
2022-11-16T09:11:16.766Z,13.82
2022-11-16T09:16:36.206Z,13.82
2022-11-16T09:22:04.529Z,13.65
2022-11-16T09:27:14.876Z,13.6
2022-11-16T09:32:34.291Z,14.04
2022-11-16T09:37:53.800Z,13.79
2022-11-16T09:43:12.630Z,13.64
2022-11-16T09:48:31.343Z,13.64
2022-11-16T09:53:50.444Z,13.68
2022-11-16T09:59:13.657Z,13.8
2022-11-16T10:04:29.345Z,13.77
2022-11-16T10:09:48.574Z,13.94
2022-11-16T10:15:07.532Z,14.34
2022-11-16T10:20:30.575Z,14.35
2022-11-16T10:25:46.328Z,14.35
2022-11-16T10:31:39.423Z,14.13
2022-11-16T10:42:17.416Z,14.39
2022-11-16T10:47:37.258Z,14.24
2022-11-16T10:52:56.336Z,14.39
2022-11-16T10:58:15.525Z,14.43
2022-11-16T11:03:34.983Z,14.02
2022-11-16T11:08:54.520Z,14.04
2022-11-16T11:14:14.095Z,13.89
2022-11-16T11:24:51.851Z,13.65
2022-11-16T11:30:10.608Z,13.68
2022-11-16T11:35:29.932Z,14.04
2022-11-16T11:40:49.386Z,14.41
2022-11-16T11:46:09.111Z,14.38
2022-11-16T11:51:28.441Z,14.37
2022-11-16T11:56:47.326Z,14.39
2022-11-16T12:02:06.399Z,14.38
2022-11-16T12:07:25.773Z,14.38
2022-11-16T12:12:45.213Z,14.36
2022-11-16T12:23:23.560Z,13.9
2022-11-16T12:28:44.002Z,13.86
2022-11-16T12:34:02.097Z,13.88
2022-11-16T12:39:21.726Z,14.07
2022-11-16T12:44:40.670Z,14.38
2022-11-16T12:50:00.117Z,14.38
2022-11-16T12:55:25.711Z,14.4
2022-11-16T13:00:38.519Z,14.45
2022-11-16T13:05:57.668Z,14.39
2022-11-16T13:12:31.854Z,14.38
2022-11-16T13:16:37.299Z,14.4
2022-11-16T13:21:56.845Z,14.37
2022-11-16T13:27:14.641Z,14.38
2022-11-16T13:32:34.127Z,14.37
2022-11-16T13:37:53.331Z,14.36
2022-11-16T13:43:12.094Z,14.39
2022-11-16T13:48:31.202Z,14.4
2022-11-16T13:54:43.008Z,14.37
2022-11-16T14:04:28.800Z,14.37
2022-11-16T14:09:47.817Z,14.39
2022-11-16T14:15:07.497Z,14.38
2022-11-16T14:20:25.778Z,14.4
2022-11-16T14:25:45.295Z,14.37
2022-11-16T14:31:04.837Z,14.31
2022-11-16T14:36:24.212Z,13.78
2022-11-16T14:41:43.226Z,13.6
2022-11-16T14:47:02.931Z,13.47
2022-11-16T14:52:21.720Z,13.36
2022-11-16T15:03:02.744Z,13.5
2022-11-16T15:13:37.488Z,13.54
2022-11-16T15:18:56.656Z,13.4
2022-11-16T15:24:29.700Z,13.28
2022-11-16T15:29:35.742Z,13.16
2022-11-16T15:40:14.330Z,13.03
2022-11-16T15:45:34.059Z,13.01
2022-11-16T15:50:53.514Z,13
2022-11-16T15:56:12.766Z,12.98
2022-11-16T16:01:32.147Z,12.97
2022-11-16T16:06:51.478Z,12.97
2022-11-16T16:12:10.258Z,12.96
2022-11-16T16:17:30.005Z,12.95
2022-11-16T16:22:48.827Z,12.95
2022-11-16T16:28:08.373Z,12.95
2022-11-16T16:33:28.068Z,12.95
2022-11-16T16:38:47.628Z,12.94
2022-11-16T16:44:16.047Z,12.94
2022-11-16T16:49:26.188Z,12.94
2022-11-16T16:54:45.076Z,12.93
2022-11-16T17:05:34.168Z,12.93
2022-11-16T17:10:43.076Z,12.92
2022-11-16T17:21:21.492Z,12.92
2022-11-16T17:26:41.002Z,12.92
2022-11-16T17:32:00.131Z,12.92
2022-11-16T17:37:19.175Z,12.92
2022-11-16T17:42:38.192Z,12.91
2022-11-16T17:47:57.859Z,12.91
2022-11-16T17:53:17.113Z,12.91
2022-11-16T18:03:55.691Z,12.91
2022-11-16T18:09:14.865Z,12.91
2022-11-16T18:14:33.428Z,12.9
2022-11-16T18:19:52.463Z,12.91
2022-11-16T18:30:30.965Z,12.91
2022-11-16T18:35:50.605Z,12.9
2022-11-16T18:41:09.504Z,12.9
2022-11-16T18:46:29.191Z,12.9
2022-11-16T18:51:47.937Z,12.9
2022-11-16T18:57:07.488Z,12.9
2022-11-16T19:02:26.394Z,12.9
2022-11-16T19:07:46.866Z,12.9
2022-11-16T19:13:06.418Z,12.89
2022-11-16T19:18:24.474Z,12.9
2022-11-16T19:23:43.249Z,12.9
2022-11-16T19:29:02.717Z,12.9
2022-11-16T19:34:21.735Z,12.9
2022-11-16T19:45:00.943Z,12.9
2022-11-16T19:50:19.841Z,12.89
2022-11-16T19:55:39.357Z,12.89
2022-11-16T20:00:59.133Z,12.89
2022-11-16T20:06:18.133Z,12.89
2022-11-16T20:11:37.274Z,12.89
2022-11-16T20:17:06.900Z,12.89
2022-11-16T20:22:15.832Z,12.89
2022-11-16T20:27:35.229Z,12.89
2022-11-16T20:32:54.046Z,12.89
2022-11-16T20:38:13.665Z,12.89
2022-11-16T20:43:32.630Z,12.89
2022-11-16T20:48:51.396Z,12.89
2022-11-16T20:54:10.793Z,12.88
2022-11-16T20:59:29.788Z,12.88
2022-11-16T21:04:49.066Z,12.88
2022-11-16T21:10:08.540Z,12.88
2022-11-16T21:15:28.236Z,12.88
2022-11-16T21:20:47.176Z,12.88
2022-11-16T21:26:06.523Z,12.88
2022-11-16T21:31:26.681Z,12.87
2022-11-16T21:36:45.430Z,12.88
2022-11-16T21:42:03.651Z,12.88
2022-11-16T21:47:22.986Z,12.88
2022-11-16T21:52:42.311Z,12.87
2022-11-16T21:58:01.651Z,12.88
2022-11-16T22:03:21.395Z,12.88
2022-11-16T22:08:40.589Z,12.87
2022-11-16T22:13:59.374Z,12.88
2022-11-16T22:19:18.757Z,12.87
2022-11-16T22:24:38.228Z,12.87
2022-11-16T22:29:57.626Z,12.88
2022-11-16T22:35:17.341Z,12.87
2022-11-16T22:40:37.087Z,12.87
2022-11-16T22:45:56.781Z,12.87
2022-11-16T22:51:16.327Z,12.86
2022-11-16T22:56:36.017Z,12.87
2022-11-16T23:01:54.925Z,12.86
2022-11-16T23:07:14.251Z,12.87
2022-11-16T23:12:33.339Z,12.86
2022-11-16T23:17:52.377Z,12.86
2022-11-16T23:23:11.504Z,12.86
2022-11-16T23:28:30.493Z,12.86
2022-11-16T23:33:49.647Z,12.86
2022-11-16T23:39:08.785Z,12.86
2022-11-16T23:44:28.122Z,12.86
2022-11-16T23:49:47.566Z,12.86
2022-11-16T23:55:07.551Z,12.85
